Time;durP1;ratioP1;P1;durP2;ratioP2;P2;SDS_P1;SDS_P2;PMS_P1;PMS_P2;Temp;Humidity;BMP_temperature;BMP_pressure;BME280_temperature;BME280_humidity;BME280_pressure;Samples;Min_cycle;Max_cycle;Signal;HPM_P1;HPM_P2
2022/06/09 00:00:16;;;;;;;3.00;2.80;;;25.80;70.50;;;;;;5126138;27;20533;-85
2022/06/09 00:02:48;;;;;;;4.30;2.63;;;25.80;70.40;;;;;;5138541;27;20430;-85
2022/06/09 00:05:16;;;;;;;3.83;2.60;;;25.80;70.40;;;;;;5138734;27;20517;-85
2022/06/09 00:07:44;;;;;;;6.80;3.00;;;25.80;70.40;;;;;;5138524;27;20430;-86
2022/06/09 00:10:17;;;;;;;2.40;2.20;;;25.80;70.40;;;;;;5137901;27;20444;-85
2022/06/09 00:12:44;;;;;;;2.70;2.50;;;25.80;70.40;;;;;;5138569;27;20440;-85
2022/06/09 00:15:13;;;;;;;2.40;2.20;;;25.80;70.50;;;;;;5138167;27;20466;-85
2022/06/09 00:17:40;;;;;;;3.10;2.63;;;25.80;70.30;;;;;;5138174;27;20481;-85
2022/06/09 00:20:08;;;;;;;2.60;2.40;;;25.80;70.40;;;;;;5137531;27;20813;-84
2022/06/09 00:22:35;;;;;;;2.37;2.17;;;25.80;70.40;;;;;;5138274;27;20517;-85
2022/06/09 00:25:02;;;;;;;2.63;2.30;;;25.80;70.40;;;;;;5138086;27;20528;-85
2022/06/09 00:27:30;;;;;;;2.67;2.20;;;25.80;70.40;;;;;;5138110;27;20437;-84
2022/06/09 00:29:57;;;;;;;2.60;2.20;;;25.80;70.30;;;;;;5119287;27;20522;-85
2022/06/09 00:32:24;;;;;;;4.90;2.60;;;25.80;70.30;;;;;;5117573;28;20822;-85
2022/06/09 00:34:51;;;;;;;3.13;2.33;;;25.80;70.30;;;;;;5117432;28;20464;-84
2022/06/09 00:37:17;;;;;;;3.17;2.47;;;25.80;70.30;;;;;;5117494;28;20478;-85
2022/06/09 00:39:44;;;;;;;3.43;2.20;;;25.80;70.30;;;;;;5133518;27;20529;-84
2022/06/09 00:42:11;;;;;;;2.87;2.67;;;25.80;70.20;;;;;;5137831;27;20440;-84
2022/06/09 00:44:40;;;;;;;3.20;2.90;;;25.80;70.30;;;;;;5137681;27;20539;-85
2022/06/09 00:47:15;;;;;;;2.80;2.57;;;25.80;70.30;;;;;;5137995;27;20430;-85
2022/06/09 00:49:47;;;;;;;5.57;2.60;;;25.80;70.30;;;;;;5122118;27;20440;-84
2022/06/09 00:52:18;;;;;;;4.07;2.30;;;25.80;70.20;;;;;;5117269;27;20481;-84
2022/06/09 00:54:49;;;;;;;2.63;2.10;;;25.80;70.20;;;;;;5117105;27;20437;-84
2022/06/09 00:57:20;;;;;;;2.83;2.30;;;25.80;71.10;;;;;;5117005;28;20479;-85
2022/06/09 00:59:52;;;;;;;2.43;2.23;;;25.80;70.30;;;;;;5135642;27;20813;-84
2022/06/09 01:02:20;;;;;;;2.30;2.10;;;25.80;71.20;;;;;;5137460;27;20458;-85
2022/06/09 01:04:50;;;;;;;2.13;1.70;;;25.80;70.20;;;;;;5137237;27;20876;-84
2022/06/09 01:07:20;;;;;;;3.50;2.30;;;25.80;70.30;;;;;;5136120;27;20470;-84
2022/06/09 01:09:47;;;;;;;2.70;2.03;;;25.80;70.30;;;;;;5119106;27;20436;-84
2022/06/09 01:12:25;;;;;;;2.20;2.00;;;25.80;70.20;;;;;;5116662;28;20995;-85
2022/06/09 01:14:54;;;;;;;3.13;1.90;;;25.80;70.20;;;;;;5116437;28;20980;-83
2022/06/09 01:17:29;;;;;;;2.07;1.87;;;25.80;70.30;;;;;;5116585;28;20569;-84
2022/06/09 01:20:10;;;;;;;3.63;2.10;;;25.80;70.20;;;;;;5134514;27;20433;-84
2022/06/09 01:23:24;;;;;;;2.30;2.10;;;25.80;70.20;;;;;;5137367;27;20430;-84
2022/06/09 01:26:16;;;;;;;1.97;1.60;;;25.80;70.10;;;;;;5137101;27;20522;-84
2022/06/09 01:29:00;;;;;;;2.07;1.87;;;25.80;70.20;;;;;;5129137;27;20436;-84
2022/06/09 01:31:35;;;;;;;2.23;1.77;;;25.80;70.20;;;;;;5094055;28;20475;-84
2022/06/09 01:34:11;;;;;;;2.37;2.07;;;25.80;70.30;;;;;;5116347;28;20438;-84
2022/06/09 01:36:43;;;;;;;2.20;2.03;;;25.80;70.20;;;;;;5119740;27;20465;-83
2022/06/09 01:39:10;;;;;;;1.70;1.37;;;25.80;70.20;;;;;;5136959;27;20525;-84
2022/06/09 01:41:46;;;;;;;2.20;2.07;;;25.80;70.20;;;;;;5136801;27;20520;-84
2022/06/09 01:44:13;;;;;;;1.83;1.67;;;25.80;70.20;;;;;;5135413;27;20541;-84
2022/06/09 01:46:45;;;;;;;2.00;1.80;;;25.80;70.10;;;;;;5133460;27;20526;-84
2022/06/09 01:49:16;;;;;;;2.73;1.77;;;25.80;70.10;;;;;;5115838;28;20445;-83
2022/06/09 01:51:44;;;;;;;3.03;1.73;;;25.80;70.10;;;;;;5115938;28;20475;-84
2022/06/09 01:54:16;;;;;;;3.20;1.90;;;25.80;70.10;;;;;;5115862;28;20526;-84
2022/06/09 01:56:48;;;;;;;2.83;1.70;;;25.80;70.10;;;;;;5116097;28;20493;-84
2022/06/09 01:59:18;;;;;;;1.63;1.53;;;25.80;70.10;;;;;;5116331;28;20798;-84
2022/06/09 02:01:52;;;;;;;1.80;1.70;;;25.70;70.90;;;;;;5115456;28;20807;-84
2022/06/09 02:04:24;;;;;;;2.33;1.77;;;25.80;70.00;;;;;;5115744;28;20447;-84
2022/06/09 02:06:53;;;;;;;1.80;1.70;;;25.80;70.10;;;;;;5115522;28;20917;-83
2022/06/09 02:09:20;;;;;;;2.00;1.73;;;25.80;71.00;;;;;;5115395;28;20449;-84
2022/06/09 02:11:50;;;;;;;1.93;1.70;;;25.80;70.10;;;;;;5115758;28;20443;-83
2022/06/09 02:14:18;;;;;;;2.60;1.60;;;25.70;70.00;;;;;;5115770;28;20491;-84
2022/06/09 02:16:47;;;;;;;1.80;1.70;;;25.80;70.00;;;;;;5115082;28;20474;-84
2022/06/09 02:19:14;;;;;;;2.13;1.93;;;25.80;70.00;;;;;;5115238;28;20445;-84
2022/06/09 02:21:41;;;;;;;1.87;1.63;;;25.80;70.00;;;;;;5115394;28;20451;-84
2022/06/09 02:24:09;;;;;;;1.93;1.30;;;25.80;70.00;;;;;;5115432;27;20872;-84
2022/06/09 02:26:35;;;;;;;2.23;1.97;;;25.80;70.00;;;;;;5135114;27;20481;-84
2022/06/09 02:29:04;;;;;;;1.73;1.47;;;25.80;70.00;;;;;;5136021;27;20943;-84
2022/06/09 02:31:31;;;;;;;2.30;1.77;;;25.80;70.00;;;;;;5136069;27;20520;-84
2022/06/09 02:33:59;;;;;;;1.70;1.60;;;25.80;70.00;;;;;;5135773;27;20477;-83
2022/06/09 02:36:26;;;;;;;2.80;1.90;;;25.80;70.00;;;;;;5135738;27;20474;-84
2022/06/09 02:38:53;;;;;;;1.73;1.63;;;25.80;70.00;;;;;;5135516;27;20521;-84
2022/06/09 02:41:20;;;;;;;2.17;1.53;;;25.80;70.00;;;;;;5135624;27;20473;-84
2022/06/09 02:43:47;;;;;;;2.00;1.90;;;25.80;70.00;;;;;;5135194;27;20850;-84
2022/06/09 02:46:14;;;;;;;1.20;1.10;;;25.80;70.00;;;;;;5135305;27;20983;-84
2022/06/09 02:48:41;;;;;;;1.73;1.50;;;25.70;69.90;;;;;;5135344;27;20932;-83
2022/06/09 02:51:17;;;;;;;1.67;1.30;;;25.80;69.90;;;;;;5135483;27;20438;-84
2022/06/09 02:53:44;;;;;;;1.53;1.43;;;25.80;69.90;;;;;;5135504;27;20838;-84
2022/06/09 02:56:11;;;;;;;1.87;1.43;;;25.80;69.90;;;;;;5135311;27;20436;-83
2022/06/09 02:58:38;;;;;;;1.67;1.57;;;25.80;70.00;;;;;;5135193;27;20537;-84
2022/06/09 03:01:04;;;;;;;1.73;1.63;;;25.80;69.90;;;;;;5135090;27;20533;-83
2022/06/09 03:03:31;;;;;;;1.20;1.10;;;25.80;69.90;;;;;;5129921;27;20526;-84
2022/06/09 03:05:58;;;;;;;2.20;1.37;;;25.80;69.90;;;;;;5114877;28;20840;-83
2022/06/09 03:08:27;;;;;;;1.60;1.50;;;25.70;69.70;;;;;;5114478;28;20885;-83
2022/06/09 03:10:54;;;;;;;1.60;1.50;;;25.80;69.90;;;;;;5114537;28;20427;-84
2022/06/09 03:13:20;;;;;;;1.50;1.40;;;25.70;69.80;;;;;;5114475;28;20439;-84
2022/06/09 03:15:48;;;;;;;1.60;1.47;;;25.70;69.80;;;;;;5114110;28;20455;-83
2022/06/09 03:18:15;;;;;;;1.90;1.40;;;25.80;69.80;;;;;;5114327;28;20486;-83
2022/06/09 03:20:42;;;;;;;2.00;1.60;;;25.80;69.80;;;;;;5114174;28;20446;-84
2022/06/09 03:23:09;;;;;;;1.63;1.53;;;25.70;69.70;;;;;;5115410;28;20474;-84
2022/06/09 03:25:37;;;;;;;1.60;1.50;;;25.70;69.70;;;;;;5134587;27;20524;-84
2022/06/09 03:28:06;;;;;;;2.87;1.40;;;25.70;69.70;;;;;;5133741;27;20438;-84
2022/06/09 03:30:34;;;;;;;1.70;1.50;;;25.80;69.70;;;;;;5133010;27;20537;-84
2022/06/09 03:33:01;;;;;;;2.90;1.53;;;25.70;69.60;;;;;;5120299;27;20483;-84
2022/06/09 03:35:28;;;;;;;1.63;1.53;;;25.70;69.70;;;;;;5113856;28;20546;-84
2022/06/09 03:37:56;;;;;;;1.20;1.10;;;25.80;69.70;;;;;;5113733;28;21048;-82
2022/06/09 03:40:24;;;;;;;3.33;1.43;;;25.80;69.70;;;;;;5113977;28;20470;-82
2022/06/09 03:42:53;;;;;;;2.17;1.50;;;25.70;69.60;;;;;;5124039;28;20442;-83
2022/06/09 03:45:21;;;;;;;1.50;1.37;;;25.80;69.70;;;;;;5120541;28;20454;-82
2022/06/09 03:47:48;;;;;;;1.67;1.20;;;25.70;69.60;;;;;;5133509;28;20848;-82
2022/06/09 03:50:18;;;;;;;2.00;1.60;;;25.80;69.70;;;;;;5134687;27;20564;-82
2022/06/09 03:52:44;;;;;;;1.57;1.47;;;25.70;69.60;;;;;;5134252;27;20468;-82
2022/06/09 03:55:11;;;;;;;3.90;2.00;;;25.70;69.60;;;;;;5134219;27;20442;-82
2022/06/09 03:57:38;;;;;;;1.47;1.30;;;25.70;70.40;;;;;;5134205;27;20482;-82
2022/06/09 04:00:10;;;;;;;1.67;1.57;;;25.70;69.70;;;;;;5134541;27;20438;-82
2022/06/09 04:02:37;;;;;;;1.40;1.23;;;25.70;69.60;;;;;;5124877;27;20438;-82
2022/06/09 04:05:04;;;;;;;1.77;1.53;;;25.70;69.60;;;;;;5113906;28;20550;-82
2022/06/09 04:07:31;;;;;;;1.80;1.70;;;25.70;69.60;;;;;;5113846;28;20523;-82
2022/06/09 04:09:58;;;;;;;1.30;1.20;;;25.70;69.50;;;;;;5112532;28;20446;-82
2022/06/09 04:12:26;;;;;;;1.67;1.33;;;25.70;70.50;;;;;;5113751;28;20439;-82
2022/06/09 04:14:52;;;;;;;1.50;1.40;;;25.70;69.50;;;;;;5113510;28;20470;-82
2022/06/09 04:17:21;;;;;;;1.40;1.30;;;25.70;69.50;;;;;;5113729;28;20578;-82
2022/06/09 04:19:48;;;;;;;2.63;1.30;;;25.70;69.50;;;;;;5113418;28;20875;-83
2022/06/09 04:22:15;;;;;;;1.50;1.30;;;25.70;69.50;;;;;;5113802;28;20450;-82
2022/06/09 04:24:42;;;;;;;1.40;1.20;;;25.70;69.50;;;;;;5133627;28;20438;-82
2022/06/09 04:27:10;;;;;;;1.30;1.20;;;25.70;69.50;;;;;;5134243;27;20537;-82
2022/06/09 04:29:37;;;;;;;1.43;1.30;;;25.70;69.50;;;;;;5134364;27;20793;-83
2022/06/09 04:32:04;;;;;;;1.63;1.53;;;25.70;69.50;;;;;;5134112;27;20529;-82
2022/06/09 04:34:33;;;;;;;1.30;1.17;;;25.70;69.60;;;;;;5134122;27;20520;-83
2022/06/09 04:36:59;;;;;;;1.37;1.27;;;25.70;69.50;;;;;;5133907;27;21086;-82
2022/06/09 04:39:26;;;;;;;1.67;1.30;;;25.70;69.50;;;;;;5133892;27;20522;-82
2022/06/09 04:41:53;;;;;;;1.30;1.20;;;25.70;69.50;;;;;;5137795;27;20441;-83
2022/06/09 04:44:20;;;;;;;1.17;1.07;;;25.70;69.50;;;;;;5137583;27;20454;-82
2022/06/09 04:46:47;;;;;;;1.57;1.33;;;25.70;69.50;;;;;;5138042;27;20438;-82
2022/06/09 04:49:13;;;;;;;1.30;1.10;;;25.70;69.50;;;;;;5137733;27;20433;-83
2022/06/09 04:51:42;;;;;;;2.27;1.60;;;25.70;69.40;;;;;;5126146;27;20483;-82
2022/06/09 04:54:09;;;;;;;1.20;1.10;;;25.70;69.50;;;;;;5116859;28;20451;-82
2022/06/09 04:56:36;;;;;;;1.40;1.30;;;25.70;69.50;;;;;;5116652;28;20917;-82
2022/06/09 04:59:03;;;;;;;1.40;1.27;;;25.70;69.40;;;;;;5117177;28;20529;-82
2022/06/09 05:01:31;;;;;;;1.87;1.50;;;25.70;69.40;;;;;;5118524;27;20439;-82
2022/06/09 05:03:59;;;;;;;1.60;1.50;;;25.70;69.50;;;;;;5129874;27;20521;-82
2022/06/09 05:06:27;;;;;;;1.97;1.27;;;25.70;69.50;;;;;;5136964;27;20434;-82
2022/06/09 05:12:20;;;;;;;1.50;1.40;;;25.70;69.40;;;;;;5116698;28;20406;-82
2022/06/09 05:14:47;;;;;;;1.73;1.57;;;25.60;69.50;;;;;;5116387;28;20546;-83
2022/06/09 05:17:14;;;;;;;1.30;1.20;;;25.60;69.50;;;;;;5116420;28;20525;-83
2022/06/09 05:19:41;;;;;;;2.03;1.30;;;25.60;69.50;;;;;;5116460;28;21025;-83
2022/06/09 05:22:08;;;;;;;1.50;1.40;;;25.70;69.50;;;;;;5122180;27;20534;-82
2022/06/09 05:24:35;;;;;;;1.77;1.67;;;25.60;69.50;;;;;;5136959;27;20521;-83
2022/06/09 05:27:02;;;;;;;1.37;1.27;;;25.60;69.50;;;;;;5137122;27;20512;-82
2022/06/09 05:29:30;;;;;;;1.57;1.47;;;25.70;69.50;;;;;;5137030;27;20446;-83
2022/06/09 05:31:57;;;;;;;1.83;1.43;;;25.60;69.50;;;;;;5137037;27;20525;-83
2022/06/09 05:34:24;;;;;;;2.00;1.80;;;25.70;69.60;;;;;;5124464;27;20869;-83
2022/06/09 05:36:51;;;;;;;1.43;1.33;;;25.70;69.50;;;;;;5116348;28;20462;-83
2022/06/09 05:44:54;;;;;;;5.37;4.17;;;25.60;69.50;;;;;;5092724;28;20439;-84
2022/06/09 05:47:23;;;;;;;6.80;5.40;;;25.60;69.70;;;;;;5129064;27;20430;-90
2022/06/09 05:49:52;;;;;;;13.33;6.57;;;25.50;70.10;;;;;;5137124;27;20454;-94
2022/06/09 05:52:22;;;;;;;7.93;6.03;;;25.50;70.30;;;;;;5135851;27;20506;-94
2022/06/09 05:54:50;;;;;;;8.00;5.10;;;25.40;70.60;;;;;;5136900;27;20466;-92
2022/06/09 05:57:17;;;;;;;16.13;6.40;;;25.40;71.90;;;;;;5139853;27;20810;-93
2022/06/09 05:59:45;;;;;;;11.30;6.73;;;25.40;71.20;;;;;;5144605;27;20434;-92
2022/06/09 06:02:15;;;;;;;15.40;6.60;;;25.30;71.20;;;;;;5143098;27;20438;-85
2022/06/09 06:04:43;;;;;;;8.40;6.90;;;25.30;71.10;;;;;;5136115;27;20491;-85
2022/06/09 06:07:09;;;;;;;11.93;7.60;;;25.30;71.10;;;;;;5136021;27;21031;-85
2022/06/09 06:09:37;;;;;;;8.93;6.80;;;25.30;71.10;;;;;;5120345;27;20530;-85
2022/06/09 06:12:05;;;;;;;9.37;8.37;;;25.30;71.40;;;;;;5115335;28;21010;-85
2022/06/09 06:14:32;;;;;;;12.73;8.70;;;25.20;71.20;;;;;;5115612;27;20538;-85
2022/06/09 06:17:00;;;;;;;9.77;8.00;;;25.20;71.60;;;;;;5116211;28;20518;-85
2022/06/09 06:19:27;;;;;;;9.00;8.10;;;25.20;72.10;;;;;;5137173;27;20520;-94
2022/06/09 06:21:55;;;;;;;14.90;8.70;;;25.20;72.40;;;;;;5136803;27;20442;-95
2022/06/09 06:24:24;;;;;;;10.20;8.80;;;25.10;72.00;;;;;;5137641;27;20533;-89
2022/06/09 06:26:52;;;;;;;13.20;9.33;;;25.10;71.90;;;;;;5121659;27;20444;-89
2022/06/09 06:29:22;;;;;;;9.80;7.50;;;25.10;71.80;;;;;;5118356;27;20533;-85
2022/06/09 06:31:49;;;;;;;13.13;9.47;;;25.10;72.80;;;;;;5135850;27;20442;-89
2022/06/09 06:34:18;;;;;;;14.20;9.20;;;25.10;72.00;;;;;;5135826;27;20430;-89
2022/06/09 06:36:46;;;;;;;11.10;9.77;;;25.20;72.00;;;;;;5135491;27;20469;-87
2022/06/09 06:39:13;;;;;;;16.80;9.37;;;25.10;72.00;;;;;;5129306;27;20840;-88
2022/06/09 06:41:40;;;;;;;10.23;7.40;;;25.20;72.10;;;;;;5120996;27;20470;-93
2022/06/09 06:44:07;;;;;;;15.63;10.23;;;25.20;71.90;;;;;;5135618;27;20548;-83
2022/06/09 06:46:34;;;;;;;11.73;9.90;;;25.20;71.90;;;;;;5148451;27;20524;-82
2022/06/09 06:49:01;;;;;;;14.90;9.63;;;25.20;71.60;;;;;;5135932;27;20841;-83
2022/06/09 06:51:29;;;;;;;9.30;8.40;;;25.20;71.70;;;;;;5114485;27;20520;-82
2022/06/09 06:53:56;;;;;;;13.23;10.73;;;25.20;71.90;;;;;;5114388;28;20497;-81
2022/06/09 06:56:23;;;;;;;11.80;9.13;;;25.20;72.50;;;;;;5114381;28;20534;-83
2022/06/09 06:58:50;;;;;;;15.83;10.23;;;25.20;72.90;;;;;;5114647;28;20916;-82
2022/06/09 07:01:17;;;;;;;12.90;10.10;;;25.20;72.80;;;;;;5114598;28;20577;-83
2022/06/09 07:03:44;;;;;;;15.40;10.37;;;25.20;72.30;;;;;;5114553;28;20443;-84
2022/06/09 07:06:10;;;;;;;11.10;10.10;;;25.20;72.00;;;;;;5114387;28;20533;-82
2022/06/09 07:08:39;;;;;;;15.23;11.60;;;25.10;72.00;;;;;;5114338;28;20431;-82
2022/06/09 07:11:07;;;;;;;14.13;10.53;;;25.10;72.30;;;;;;5114197;28;21033;-82
2022/06/09 07:13:36;;;;;;;15.87;12.63;;;25.10;72.10;;;;;;5114267;28;20466;-82
2022/06/09 07:16:03;;;;;;;12.93;11.33;;;25.00;72.00;;;;;;5113996;28;20445;-82
2022/06/09 07:18:30;;;;;;;15.60;11.90;;;25.00;71.80;;;;;;5114049;28;20904;-82
2022/06/09 07:20:58;;;;;;;16.17;12.00;;;25.00;72.20;;;;;;5114201;28;20957;-83
2022/06/09 07:23:26;;;;;;;14.40;12.53;;;25.00;72.40;;;;;;5114065;28;20445;-82
2022/06/09 07:25:54;;;;;;;17.97;13.03;;;25.00;72.30;;;;;;5114261;28;20431;-82
2022/06/09 07:28:21;;;;;;;17.80;12.47;;;25.00;72.20;;;;;;5133668;27;20864;-83
2022/06/09 07:30:49;;;;;;;16.90;13.70;;;25.00;71.90;;;;;;5121205;27;20522;-82
2022/06/09 07:33:16;;;;;;;18.20;14.10;;;24.90;72.00;;;;;;5132283;27;20434;-83
2022/06/09 07:35:43;;;;;;;15.87;13.47;;;25.00;72.00;;;;;;5128386;27;20855;-83
2022/06/09 07:38:12;;;;;;;16.80;14.23;;;24.90;72.00;;;;;;5118121;27;20923;-82
2022/06/09 07:40:41;;;;;;;16.00;13.70;;;25.00;72.50;;;;;;5129104;27;20526;-87
2022/06/09 07:43:10;;;;;;;18.83;12.17;;;24.90;72.30;;;;;;5128250;27;20477;-87
2022/06/09 07:45:38;;;;;;;16.20;14.50;;;24.90;72.60;;;;;;5122705;27;21065;-86
2022/06/09 07:48:05;;;;;;;18.43;14.60;;;24.90;72.30;;;;;;5121836;28;20478;-88
2022/06/09 07:50:33;;;;;;;14.60;13.20;;;24.90;72.10;;;;;;5122272;28;20503;-83
2022/06/09 07:53:01;;;;;;;16.50;14.97;;;24.80;71.90;;;;;;5128493;28;20501;-86
2022/06/09 07:55:29;;;;;;;17.13;14.60;;;24.80;71.90;;;;;;5116381;28;20538;-85
2022/06/09 07:57:56;;;;;;;19.83;14.47;;;24.90;71.90;;;;;;5116543;28;20955;-87
2022/06/09 08:00:27;;;;;;;15.67;14.00;;;24.90;72.00;;;;;;5129353;28;21043;-88
2022/06/09 08:02:55;;;;;;;17.10;14.30;;;24.90;72.60;;;;;;5134718;28;20466;-87
2022/06/09 08:05:24;;;;;;;17.53;13.67;;;24.90;72.80;;;;;;5134434;28;20437;-86
2022/06/09 08:07:51;;;;;;;17.07;12.80;;;24.80;72.10;;;;;;5133608;28;20470;-89
2022/06/09 08:10:22;;;;;;;13.67;12.17;;;24.90;72.00;;;;;;5133936;28;20462;-85
2022/06/09 08:12:51;;;;;;;15.60;12.80;;;25.00;71.90;;;;;;5134246;27;20525;-86
2022/06/09 08:15:19;;;;;;;13.00;11.70;;;25.00;71.70;;;;;;5115552;28;20462;-87
2022/06/09 08:17:48;;;;;;;12.93;11.20;;;25.10;71.60;;;;;;5120037;27;20960;-87
2022/06/09 08:20:15;;;;;;;14.00;10.97;;;25.10;71.30;;;;;;5128836;27;20466;-87
2022/06/09 08:22:43;;;;;;;12.83;11.53;;;25.20;71.10;;;;;;5117442;28;20443;-87
2022/06/09 08:25:13;;;;;;;11.10;10.20;;;25.20;70.90;;;;;;5117493;28;20500;-86
2022/06/09 08:27:40;;;;;;;11.83;10.20;;;25.30;70.70;;;;;;5115959;28;20538;-86
2022/06/09 08:30:09;;;;;;;11.60;10.70;;;25.30;70.60;;;;;;5127401;27;20856;-87
2022/06/09 08:32:36;;;;;;;12.13;11.03;;;25.40;70.50;;;;;;5117476;27;20447;-90
2022/06/09 08:35:09;;;;;;;11.50;10.40;;;25.40;70.40;;;;;;5117286;28;20573;-88
2022/06/09 08:37:36;;;;;;;11.77;9.77;;;25.50;70.50;;;;;;5117162;28;20443;-87
2022/06/09 08:40:04;;;;;;;10.93;9.83;;;25.50;70.50;;;;;;5117529;28;20514;-85
2022/06/09 08:42:39;;;;;;;13.20;10.73;;;25.50;70.40;;;;;;5117290;28;20475;-87
2022/06/09 08:45:11;;;;;;;10.00;8.97;;;25.60;70.80;;;;;;5117124;28;20507;-87
2022/06/09 08:47:40;;;;;;;10.50;9.70;;;25.60;70.40;;;;;;5134631;27;20920;-86
2022/06/09 08:50:16;;;;;;;12.30;8.80;;;25.60;70.30;;;;;;5116963;28;20925;-87
2022/06/09 08:52:52;;;;;;;20.33;8.93;;;25.70;70.40;;;;;;5116875;28;20474;-88
2022/06/09 08:55:28;;;;;;;19.23;9.73;;;25.60;70.60;;;;;;5117130;28;20470;-87
2022/06/09 08:57:58;;;;;;;9.27;7.43;;;25.60;70.70;;;;;;5117028;28;20514;-88
2022/06/09 09:00:32;;;;;;;18.70;8.97;;;25.50;70.80;;;;;;5117399;28;20427;-88
2022/06/09 09:03:04;;;;;;;12.70;8.23;;;25.50;70.70;;;;;;5117938;28;20846;-88
2022/06/09 09:05:39;;;;;;;20.00;7.30;;;25.50;71.60;;;;;;5117216;28;20518;-88
2022/06/09 09:08:08;;;;;;;23.27;8.03;;;25.50;70.70;;;;;;5116878;28;20441;-88
2022/06/09 09:10:47;;;;;;;25.23;8.00;;;25.60;70.90;;;;;;5116910;28;20462;-87
2022/06/09 09:13:25;;;;;;;19.13;8.70;;;25.60;70.80;;;;;;5116689;28;20480;-89
2022/06/09 09:15:55;;;;;;;17.50;8.90;;;25.60;71.60;;;;;;5116933;28;20922;-88
2022/06/09 09:18:33;;;;;;;15.13;7.30;;;25.60;70.80;;;;;;5116759;28;20435;-87
2022/06/09 09:21:14;;;;;;;15.23;7.47;;;25.60;70.70;;;;;;5116651;28;20443;-88
2022/06/09 09:23:52;;;;;;;15.30;9.10;;;25.60;70.80;;;;;;5117347;28;20520;-88
2022/06/09 09:26:27;;;;;;;20.40;8.33;;;25.60;70.70;;;;;;5115908;28;20518;-88
2022/06/09 09:29:03;;;;;;;14.70;8.60;;;25.60;70.80;;;;;;5116367;28;20439;-88
2022/06/09 09:31:49;;;;;;;17.83;7.93;;;25.60;70.60;;;;;;5116355;28;20489;-88
2022/06/09 09:34:19;;;;;;;21.20;8.07;;;25.70;70.70;;;;;;5117255;28;20496;-93
2022/06/09 09:36:55;;;;;;;15.73;7.20;;;25.70;70.60;;;;;;5116888;28;20443;-94
2022/06/09 09:39:24;;;;;;;12.63;7.73;;;25.70;70.70;;;;;;5116916;28;20511;-94
2022/06/09 09:41:58;;;;;;;13.57;8.07;;;25.70;70.60;;;;;;5116893;27;20481;-94
2022/06/09 09:44:28;;;;;;;19.73;8.37;;;25.70;70.60;;;;;;5116833;28;20494;-93
2022/06/09 09:46:58;;;;;;;16.50;7.90;;;25.80;70.50;;;;;;5116623;28;20443;-94
2022/06/09 09:49:29;;;;;;;12.37;8.67;;;25.80;70.50;;;;;;5116744;28;20500;-93
2022/06/09 09:51:59;;;;;;;22.03;7.67;;;25.80;70.60;;;;;;5117542;28;20466;-86
2022/06/09 09:54:33;;;;;;;21.13;8.27;;;25.80;70.70;;;;;;5116214;28;20537;-86
2022/06/09 09:57:13;;;;;;;20.30;8.60;;;25.80;70.70;;;;;;5116124;28;20458;-86
2022/06/09 09:59:46;;;;;;;18.63;8.30;;;25.90;70.70;;;;;;5116027;28;20992;-87
2022/06/09 10:08:39;;;;;;;21.43;7.50;;;25.90;70.80;;;;;;5116145;28;20419;-86
2022/06/09 10:14:00;;;;;;;12.10;6.80;;;25.90;70.80;;;;;;5115503;28;20446;-87
2022/06/09 10:16:30;;;;;;;10.83;7.40;;;25.90;70.90;;;;;;5115550;28;20443;-86
2022/06/09 10:19:02;;;;;;;11.60;6.40;;;25.90;70.80;;;;;;5115490;28;20479;-86
2022/06/09 10:21:47;;;;;;;13.80;7.37;;;25.90;70.70;;;;;;5115436;28;20503;-86
2022/06/09 10:24:19;;;;;;;15.80;7.00;;;25.90;70.70;;;;;;5115502;28;20846;-86
2022/06/09 10:26:50;;;;;;;8.40;6.30;;;25.90;70.60;;;;;;5114226;28;20934;-86
2022/06/09 10:29:22;;;;;;;15.07;6.67;;;25.90;70.60;;;;;;5114198;28;20431;-86
2022/06/09 10:31:56;;;;;;;10.47;6.83;;;25.90;70.60;;;;;;5114004;28;20546;-86
2022/06/09 10:34:38;;;;;;;12.37;7.10;;;25.90;70.60;;;;;;5114068;28;20435;-86
2022/06/09 10:37:15;;;;;;;14.00;7.60;;;25.90;70.50;;;;;;5115404;28;20522;-86
2022/06/09 10:39:50;;;;;;;10.60;6.47;;;25.90;70.60;;;;;;5114838;28;20489;-85
2022/06/09 10:42:28;;;;;;;9.90;6.10;;;25.90;71.40;;;;;;5114847;28;20514;-86
2022/06/09 10:45:11;;;;;;;10.93;6.90;;;25.90;70.80;;;;;;5115146;28;20498;-86
2022/06/09 10:56:22;;;;;;;7.10;5.87;;;26.10;71.10;;;;;;5114051;28;20485;-85
2022/06/09 10:58:55;;;;;;;7.00;6.40;;;26.00;70.90;;;;;;5113333;28;20808;-86
2022/06/09 11:01:27;;;;;;;6.27;5.67;;;26.10;71.00;;;;;;5113780;28;20858;-86
2022/06/09 11:03:55;;;;;;;6.30;5.70;;;26.20;71.00;;;;;;5114452;28;20569;-86
2022/06/09 11:06:52;;;;;;;7.37;5.63;;;26.20;71.00;;;;;;5114451;28;20538;-86
2022/06/09 11:09:28;;;;;;;13.63;6.10;;;26.20;70.90;;;;;;5113207;28;20446;-86
2022/06/09 11:12:07;;;;;;;10.67;6.37;;;26.20;71.00;;;;;;5113014;28;20435;-86
2022/06/09 11:14:45;;;;;;;11.87;6.67;;;26.30;71.10;;;;;;5114311;28;20459;-86
2022/06/09 11:17:30;;;;;;;10.67;6.47;;;26.30;71.10;;;;;;5114355;28;20435;-87
2022/06/09 11:20:12;;;;;;;10.83;5.93;;;26.30;71.00;;;;;;5113194;28;20511;-86
2022/06/09 11:22:46;;;;;;;8.10;5.33;;;26.20;71.00;;;;;;5114443;28;20443;-85
2022/06/09 11:25:44;;;;;;;8.67;5.27;;;26.20;71.00;;;;;;5113344;28;20458;-86
2022/06/09 11:28:35;;;;;;;12.30;5.73;;;26.20;70.90;;;;;;5113791;28;20482;-86
2022/06/09 11:31:22;;;;;;;7.80;5.43;;;26.20;71.20;;;;;;5112791;28;20525;-86
2022/06/09 11:34:16;;;;;;;7.47;5.00;;;26.20;71.10;;;;;;5114004;28;20471;-86
2022/06/09 11:36:50;;;;;;;8.27;4.90;;;26.20;71.20;;;;;;5113568;28;20457;-85
2022/06/09 11:39:30;;;;;;;5.30;4.80;;;26.10;71.10;;;;;;5113770;28;20479;-86
2022/06/09 11:42:04;;;;;;;9.93;5.40;;;26.10;71.10;;;;;;5114223;28;20470;-85
2022/06/09 11:44:35;;;;;;;6.00;4.70;;;26.20;71.20;;;;;;5113965;28;20497;-87
2022/06/09 11:47:06;;;;;;;5.27;4.73;;;26.20;71.20;;;;;;5113937;28;20515;-86
2022/06/09 11:49:37;;;;;;;7.53;5.20;;;26.10;71.10;;;;;;5113279;28;20431;-86
2022/06/09 11:52:08;;;;;;;5.90;5.23;;;26.20;71.20;;;;;;5113713;28;20471;-85
2022/06/09 11:54:43;;;;;;;4.93;4.43;;;26.20;71.20;;;;;;5114413;28;20982;-86
2022/06/09 11:57:26;;;;;;;5.60;4.77;;;26.20;71.20;;;;;;5114273;28;20808;-86
2022/06/09 11:59:58;;;;;;;4.63;4.33;;;26.20;71.10;;;;;;5114134;28;21004;-87
2022/06/09 12:03:02;;;;;;;5.20;4.70;;;26.20;71.30;;;;;;5113825;28;20518;-86
2022/06/09 12:05:33;;;;;;;5.97;3.40;;;26.20;71.20;;;;;;5113639;28;20490;-88
2022/06/09 16:59:53;;;;;;;13.30;9.20;;;25.80;73.60;;;;;;5134891;27;20447;-88
2022/06/09 17:02:21;;;;;;;13.93;8.83;;;25.80;74.00;;;;;;5117461;28;20461;-86
2022/06/09 17:04:48;;;;;;;13.90;7.47;;;25.80;73.80;;;;;;5100159;28;20472;-85
2022/06/09 17:07:18;;;;;;;11.60;7.70;;;25.80;73.60;;;;;;5078684;28;20452;-85
2022/06/09 17:09:46;;;;;;;10.07;7.30;;;25.80;73.50;;;;;;5078535;28;20443;-85
2022/06/09 17:12:14;;;;;;;10.40;6.63;;;25.80;73.50;;;;;;5096993;28;20448;-92
2022/06/09 17:14:41;;;;;;;6.23;5.60;;;25.80;73.50;;;;;;5096757;28;20444;-93
2022/06/09 17:17:09;;;;;;;8.07;6.33;;;25.80;73.50;;;;;;5096754;28;20482;-91
2022/06/09 17:19:38;;;;;;;6.27;5.37;;;25.80;73.40;;;;;;5096969;28;20487;-93
2022/06/09 17:22:06;;;;;;;11.13;6.53;;;25.80;73.40;;;;;;5096231;28;20444;-93
2022/06/09 17:24:33;;;;;;;7.13;6.03;;;25.80;73.40;;;;;;5096870;28;20534;-92
2022/06/09 17:27:00;;;;;;;6.43;5.70;;;25.80;73.40;;;;;;5078778;28;20519;-93
2022/06/09 17:29:27;;;;;;;6.13;5.63;;;25.80;73.30;;;;;;5096396;28;20927;-92
2022/06/09 17:31:54;;;;;;;7.80;5.43;;;25.80;73.40;;;;;;5096032;28;20468;-91
2022/06/09 17:34:22;;;;;;;9.07;5.93;;;25.80;73.40;;;;;;5096013;28;20482;-91
2022/06/09 17:36:50;;;;;;;9.33;5.83;;;25.80;73.50;;;;;;5096422;28;20466;-92
2022/06/09 17:39:17;;;;;;;4.97;4.50;;;25.80;73.50;;;;;;5078623;28;20594;-92
2022/06/09 17:41:45;;;;;;;9.50;5.07;;;25.80;73.60;;;;;;5095832;28;20485;-88
2022/06/09 17:44:12;;;;;;;7.80;5.10;;;25.80;74.30;;;;;;5095678;28;20566;-92
2022/06/09 17:46:39;;;;;;;5.40;4.83;;;25.80;73.40;;;;;;5095849;28;20535;-85
2022/06/09 17:49:06;;;;;;;4.80;4.30;;;25.80;73.40;;;;;;5077355;28;20448;-85
2022/06/09 17:51:33;;;;;;;6.07;4.30;;;25.80;73.30;;;;;;5078086;28;20444;-87
2022/06/09 17:54:04;;;;;;;6.17;4.70;;;25.80;72.10;;;;;;5078275;28;20784;-84
2022/06/09 17:56:33;;;;;;;5.10;3.33;;;25.90;71.90;;;;;;5096044;28;20837;-87
2022/06/09 17:58:59;;;;;;;6.13;4.10;;;25.80;71.90;;;;;;5095575;28;20447;-88
2022/06/09 18:01:27;;;;;;;5.27;3.70;;;25.80;72.20;;;;;;5108342;28;20537;-92
2022/06/09 18:03:54;;;;;;;3.70;3.33;;;25.80;72.20;;;;;;5116137;28;20546;-88
2022/06/09 18:06:21;;;;;;;4.47;3.70;;;25.80;72.30;;;;;;5127706;27;20458;-92
2022/06/09 18:08:48;;;;;;;10.73;3.70;;;25.80;72.40;;;;;;5136536;27;20469;-86
2022/06/09 18:11:20;;;;;;;4.90;3.00;;;25.80;72.50;;;;;;5136225;27;20521;-86
2022/06/09 18:13:47;;;;;;;7.03;2.67;;;25.80;71.90;;;;;;5135907;27;20497;-87